Time;durP1;ratioP1;P1;durP2;ratioP2;P2;SDS_P1;SDS_P2;PMS_P1;PMS_P2;Temp;Humidity;BMP_temperature;BMP_pressure;BME280_temperature;BME280_humidity;BME280_pressure;Samples;Min_cycle;Max_cycle;Signal;HPM_P1;HPM_P2
2022/05/27 00:01:53;;;;;;;7.03;1.70;;;12.70;99.90;;;;;;4957713;28;20102;-81
2022/05/27 00:04:19;;;;;;;10.75;1.83;;;12.70;99.90;;;;;;4942383;29;20082;-80
2022/05/27 00:06:45;;;;;;;6.03;1.70;;;12.70;99.90;;;;;;4961994;29;20126;-80
2022/05/27 00:09:10;;;;;;;9.55;1.92;;;12.70;99.90;;;;;;4960857;28;20078;-79
2022/05/27 00:11:36;;;;;;;5.32;1.92;;;12.70;99.90;;;;;;4957851;29;20039;-78
2022/05/27 00:14:02;;;;;;;6.60;2.00;;;12.70;99.90;;;;;;4955543;29;20053;-78
2022/05/27 00:16:28;;;;;;;8.63;1.73;;;12.70;99.90;;;;;;4955525;29;20121;-82
2022/05/27 00:18:55;;;;;;;9.43;2.15;;;12.70;99.90;;;;;;4954378;29;20455;-80
2022/05/27 00:21:21;;;;;;;7.32;1.70;;;12.70;99.90;;;;;;4955837;29;20051;-80
2022/05/27 00:23:47;;;;;;;5.70;1.90;;;12.70;99.90;;;;;;4958714;29;20153;-81
2022/05/27 00:26:13;;;;;;;9.05;2.00;;;12.70;99.90;;;;;;4979016;28;20043;-81
2022/05/27 00:28:39;;;;;;;9.57;2.10;;;12.70;99.90;;;;;;4965564;29;20043;-82
2022/05/27 00:31:05;;;;;;;7.18;1.90;;;12.70;99.90;;;;;;4966004;28;20047;-81
2022/05/27 00:33:33;;;;;;;8.00;1.85;;;12.70;99.90;;;;;;4967989;29;20051;-82
2022/05/27 00:35:58;;;;;;;7.68;1.85;;;12.70;99.90;;;;;;4962720;28;20121;-81
2022/05/27 00:38:24;;;;;;;7.45;2.08;;;12.70;99.90;;;;;;4955214;29;20126;-82
2022/05/27 00:40:54;;;;;;;7.47;2.72;;;12.70;99.90;;;;;;4954233;28;20047;-82
2022/05/27 00:43:20;;;;;;;11.52;2.38;;;12.70;99.90;;;;;;4954621;29;20105;-82
2022/05/27 00:46:05;;;;;;;7.07;2.13;;;12.70;99.90;;;;;;4953137;29;20040;-82
2022/05/27 00:48:35;;;;;;;11.68;2.70;;;12.70;99.90;;;;;;4969076;28;20287;-82
2022/05/27 00:51:04;;;;;;;8.30;2.30;;;12.80;99.90;;;;;;4955255;28;20175;-82
2022/05/27 00:53:35;;;;;;;7.50;2.53;;;12.70;99.90;;;;;;4954675;28;20111;-82
2022/05/27 00:56:03;;;;;;;7.88;2.45;;;12.80;99.90;;;;;;4962714;29;20043;-79
2022/05/27 00:58:33;;;;;;;8.07;2.45;;;12.80;99.90;;;;;;4947429;29;20055;-80
2022/05/27 01:01:00;;;;;;;8.27;2.75;;;12.80;99.90;;;;;;4963198;29;20054;-81
2022/05/27 01:03:27;;;;;;;10.07;3.03;;;12.80;99.90;;;;;;4963119;28;20075;-81
2022/05/27 01:05:53;;;;;;;9.50;2.78;;;12.80;99.90;;;;;;4960090;29;20393;-81
2022/05/27 01:08:22;;;;;;;16.73;3.83;;;12.80;99.90;;;;;;4963419;29;20125;-82
2022/05/27 01:11:00;;;;;;;10.43;3.03;;;12.90;99.90;;;;;;4960431;28;20055;-82
2022/05/27 01:13:37;;;;;;;10.82;3.30;;;13.00;99.90;;;;;;4959845;28;20087;-80
2022/05/27 01:16:17;;;;;;;8.77;3.42;;;12.90;99.90;;;;;;4960561;29;20055;-81
2022/05/27 01:22:17;;;;;;;11.20;3.20;;;13.00;99.90;;;;;;4956705;28;20059;-81
2022/05/27 01:24:55;;;;;;;12.65;3.60;;;13.00;99.90;;;;;;4957208;28;20137;-81
2022/05/27 01:27:59;;;;;;;10.77;3.50;;;12.90;99.90;;;;;;4957617;28;20137;-81
2022/05/27 01:30:36;;;;;;;13.45;3.75;;;12.80;99.90;;;;;;4956596;29;20134;-82
2022/05/27 01:33:01;;;;;;;11.30;3.65;;;12.90;99.90;;;;;;4956913;28;20059;-75
2022/05/27 01:35:36;;;;;;;14.02;4.63;;;12.90;99.90;;;;;;4955819;29;20111;-80
2022/05/27 01:38:37;;;;;;;13.52;3.90;;;12.90;99.90;;;;;;4956362;29;20397;-77
2022/05/27 01:41:21;;;;;;;13.90;4.00;;;12.90;99.90;;;;;;4952324;29;20086;-76
2022/05/27 01:44:05;;;;;;;12.07;4.30;;;12.90;99.90;;;;;;4923985;29;20047;-81
2022/05/27 01:46:56;;;;;;;9.55;3.97;;;12.90;99.90;;;;;;4955675;29;20133;-82
2022/05/27 01:49:44;;;;;;;14.35;4.13;;;12.80;99.90;;;;;;4956768;28;20051;-82
2022/05/27 01:52:36;;;;;;;11.32;3.72;;;12.90;99.90;;;;;;4956013;29;20142;-82
2022/05/27 01:55:10;;;;;;;9.90;3.92;;;12.90;99.90;;;;;;4956535;29;20457;-81
2022/05/27 01:58:14;;;;;;;20.65;4.70;;;12.80;99.90;;;;;;4957103;29;20106;-82
2022/05/27 02:00:43;;;;;;;12.82;4.63;;;12.80;99.90;;;;;;4957148;28;20055;-79
2022/05/27 02:03:36;;;;;;;20.15;5.25;;;12.90;99.90;;;;;;4971403;28;20086;-81
2022/05/27 02:06:13;;;;;;;14.30;4.72;;;12.80;99.90;;;;;;4955930;28;20062;-80
2022/05/27 02:08:50;;;;;;;;;;;12.80;99.90;;;;;;4957189;29;20058;-80
2022/05/27 02:11:21;;;;;;;20.83;4.57;;;12.70;99.90;;;;;;4955232;29;20004;-81
2022/05/27 02:13:50;;;;;;;20.10;4.65;;;12.70;99.90;;;;;;4956604;29;20122;-80
2022/05/27 02:16:23;;;;;;;16.40;4.63;;;12.70;99.90;;;;;;4954823;29;20050;-81
2022/05/27 02:18:52;;;;;;;19.00;4.20;;;12.60;99.90;;;;;;4955127;29;20101;-82
2022/05/27 02:21:20;;;;;;;21.60;4.40;;;12.60;99.90;;;;;;4938182;29;20090;-79
2022/05/27 02:23:51;;;;;;;21.27;4.97;;;12.50;99.90;;;;;;4956567;28;20067;-82
2022/05/27 02:26:23;;;;;;;20.33;4.43;;;12.50;99.90;;;;;;4955951;28;20039;-80
2022/05/27 02:28:53;;;;;;;17.75;4.57;;;12.40;99.90;;;;;;4955878;28;20059;-80
2022/05/27 02:31:23;;;;;;;18.23;4.68;;;12.40;99.90;;;;;;4954534;29;20102;-79
2022/05/27 02:37:19;;;;;;;16.90;4.10;;;12.30;99.90;;;;;;4955022;29;20575;-79
2022/05/27 02:39:45;;;;;;;19.00;3.75;;;12.30;99.90;;;;;;4946856;28;20055;-81
2022/05/27 02:42:42;;;;;;;13.63;3.50;;;12.30;99.90;;;;;;4938394;29;20076;-79
2022/05/27 02:45:31;;;;;;;19.60;3.50;;;12.20;99.90;;;;;;4955115;29;20051;-80
2022/05/27 02:48:29;;;;;;;15.82;4.03;;;12.10;99.90;;;;;;4955886;29;20129;-81
2022/05/27 02:50:59;;;;;;;15.73;3.78;;;12.10;99.90;;;;;;4954204;29;20143;-81
2022/05/27 02:53:33;;;;;;;15.80;3.47;;;12.10;99.90;;;;;;4955696;28;20105;-78
2022/05/27 02:56:05;;;;;;;17.63;3.35;;;12.10;99.90;;;;;;4954489;29;20475;-77
2022/05/27 02:58:32;;;;;;;19.23;3.20;;;12.00;99.90;;;;;;4955579;28;20098;-79
2022/05/27 03:00:58;;;;;;;16.92;2.95;;;12.00;99.90;;;;;;4955037;28;20043;-79
2022/05/27 03:03:25;;;;;;;14.30;3.58;;;12.00;99.90;;;;;;4954154;28;20062;-80
2022/05/27 03:06:15;;;;;;;16.65;3.50;;;12.00;99.90;;;;;;4955019;29;20098;-81
2022/05/27 03:09:07;;;;;;;19.02;3.40;;;12.00;99.90;;;;;;4955639;28;20052;-79
2022/05/27 03:12:09;;;;;;;15.05;3.80;;;12.00;99.90;;;;;;4955069;29;20105;-81
2022/05/27 03:15:00;;;;;;;19.50;3.53;;;12.00;99.90;;;;;;4954087;29;20388;-80
2022/05/27 03:17:51;;;;;;;19.52;2.90;;;11.90;99.90;;;;;;4954858;28;20082;-80
2022/05/27 03:20:24;;;;;;;16.92;2.72;;;12.00;99.90;;;;;;4955315;28;20071;-77
2022/05/27 03:23:01;;;;;;;19.98;4.35;;;12.00;99.90;;;;;;4954442;29;20500;-80
2022/05/27 03:25:32;;;;;;;;;;;12.00;99.90;;;;;;4954410;28;20059;-81
2022/05/27 03:28:17;;;;;;;19.17;3.08;;;12.00;99.90;;;;;;4955668;28;20256;-80
2022/05/27 03:31:17;;;;;;;20.30;3.28;;;12.00;99.90;;;;;;4969653;28;20047;-79
2022/05/27 03:34:01;;;;;;;16.38;2.95;;;12.00;99.90;;;;;;4969571;28;20082;-79
2022/05/27 03:36:52;;;;;;;19.60;2.95;;;12.00;99.90;;;;;;4953310;29;20051;-80
2022/05/27 03:39:42;;;;;;;12.73;2.72;;;12.00;99.90;;;;;;4953670;29;20047;-78
2022/05/27 03:42:09;;;;;;;13.35;3.22;;;12.10;99.90;;;;;;4955194;28;20043;-80
2022/05/27 03:44:35;;;;;;;15.35;2.90;;;12.10;99.90;;;;;;4953332;29;20395;-80
2022/05/27 03:47:02;;;;;;;13.60;3.15;;;12.10;99.90;;;;;;4954310;29;20043;-79
2022/05/27 03:49:28;;;;;;;19.25;2.65;;;12.20;99.90;;;;;;4969239;28;20161;-79
2022/05/27 03:52:07;;;;;;;17.63;2.80;;;12.30;99.90;;;;;;4956215;29;20047;-83
2022/05/27 03:54:33;;;;;;;16.65;2.95;;;12.30;99.90;;;;;;4954781;29;20510;-82
2022/05/27 03:56:59;;;;;;;13.63;2.65;;;12.30;99.90;;;;;;4959021;29;20043;-82
2022/05/27 03:59:25;;;;;;;18.58;3.10;;;12.30;99.90;;;;;;4957108;28;20044;-81
2022/05/27 04:01:54;;;;;;;20.88;2.65;;;12.30;99.90;;;;;;4955664;29;20047;-81
2022/05/27 04:04:23;;;;;;;18.52;2.38;;;12.20;99.90;;;;;;4956608;28;20039;-77
2022/05/27 04:06:50;;;;;;;20.55;2.75;;;12.20;99.90;;;;;;4954416;29;20047;-81
2022/05/27 04:09:17;;;;;;;14.90;2.38;;;12.20;99.90;;;;;;4953630;29;20058;-81
2022/05/27 04:11:44;;;;;;;15.32;2.67;;;12.10;99.90;;;;;;4954832;29;20145;-80
2022/05/27 04:14:11;;;;;;;16.08;2.25;;;12.10;99.90;;;;;;4956198;28;20043;-81
2022/05/27 04:16:38;;;;;;;13.43;2.00;;;12.10;99.90;;;;;;4969907;28;20043;-81
2022/05/27 04:19:04;;;;;;;15.15;2.22;;;12.10;99.90;;;;;;4954885;29;20051;-81
2022/05/27 04:21:30;;;;;;;19.47;2.77;;;12.10;99.90;;;;;;4953351;29;20117;-81
2022/05/27 04:23:56;;;;;;;19.57;2.90;;;12.10;99.90;;;;;;4956619;29;20456;-82
2022/05/27 04:26:23;;;;;;;18.13;2.47;;;12.20;99.90;;;;;;4958858;28;20058;-79
2022/05/27 04:28:48;;;;;;;11.63;1.95;;;12.20;99.90;;;;;;4962171;28;20047;-80
2022/05/27 04:31:14;;;;;;;16.08;2.38;;;12.20;99.90;;;;;;4965007;28;20097;-80
2022/05/27 04:33:40;;;;;;;13.63;2.40;;;12.20;99.90;;;;;;4964316;29;20078;-79
2022/05/27 04:36:07;;;;;;;17.60;2.37;;;12.20;99.90;;;;;;4967130;29;20110;-80
2022/05/27 04:38:33;;;;;;;16.63;2.63;;;12.30;99.90;;;;;;4958273;29;20334;-80
2022/05/27 04:40:59;;;;;;;14.70;3.38;;;12.30;99.90;;;;;;4942726;29;20386;-80
2022/05/27 04:43:24;;;;;;;14.77;2.25;;;12.30;99.90;;;;;;4958896;29;20138;-78
2022/05/27 04:45:50;;;;;;;12.93;2.72;;;12.40;99.90;;;;;;4960818;28;20083;-82
2022/05/27 04:48:18;;;;;;;15.02;2.10;;;12.40;99.90;;;;;;4958811;28;20050;-80
2022/05/27 04:50:44;;;;;;;14.60;2.50;;;12.40;99.90;;;;;;4959222;29;20102;-79
2022/05/27 04:53:10;;;;;;;22.00;2.88;;;12.40;99.90;;;;;;4962319;29;20062;-80
2022/05/27 04:55:38;;;;;;;18.10;2.88;;;12.40;99.90;;;;;;4960672;29;20051;-80
2022/05/27 04:58:05;;;;;;;17.25;2.97;;;12.40;99.90;;;;;;4961546;29;20057;-82
2022/05/27 05:00:36;;;;;;;23.48;2.97;;;12.30;99.90;;;;;;4961338;28;20058;-81
2022/05/27 05:03:03;;;;;;;17.77;2.47;;;12.30;99.90;;;;;;4963835;28;20130;-81
2022/05/27 05:05:31;;;;;;;16.27;2.90;;;12.30;99.90;;;;;;4961351;29;20424;-81
2022/05/27 05:08:03;;;;;;;12.88;2.85;;;12.30;99.90;;;;;;4960910;28;20047;-81
2022/05/27 05:10:30;;;;;;;15.13;2.78;;;12.30;99.90;;;;;;4962704;29;20126;-80
2022/05/27 05:12:57;;;;;;;19.15;3.03;;;12.30;99.90;;;;;;4964208;29;20062;-80
2022/05/27 05:15:24;;;;;;;17.90;2.63;;;12.40;99.90;;;;;;4958804;29;20158;-82
2022/05/27 05:17:50;;;;;;;13.65;2.80;;;12.50;99.90;;;;;;4960476;28;20079;-81
2022/05/27 05:20:19;;;;;;;22.17;3.33;;;12.60;99.90;;;;;;4958129;29;20063;-74
2022/05/27 05:22:45;;;;;;;14.52;2.63;;;12.60;99.90;;;;;;4957497;28;20051;-73
2022/05/27 05:25:12;;;;;;;18.42;2.78;;;12.60;99.90;;;;;;4957181;29;20047;-74
2022/05/27 05:27:39;;;;;;;;;;;12.60;99.90;;;;;;4957452;29;20055;-74
2022/05/27 05:30:08;;;;;;;14.95;2.08;;;12.60;99.90;;;;;;4958175;28;20298;-74
2022/05/27 05:32:34;;;;;;;11.02;2.05;;;12.50;99.90;;;;;;4957637;29;20051;-73
2022/05/27 05:35:00;;;;;;;9.43;1.42;;;12.50;99.90;;;;;;4958238;28;20078;-74
2022/05/27 05:37:27;;;;;;;13.18;2.00;;;12.60;99.90;;;;;;4956582;29;20459;-73
2022/05/27 05:39:53;;;;;;;15.20;2.05;;;12.70;99.90;;;;;;4956369;28;20051;-73
2022/05/27 05:42:19;;;;;;;15.88;2.00;;;12.70;99.90;;;;;;4971741;28;20448;-74
2022/05/27 05:44:44;;;;;;;12.60;1.65;;;12.70;99.90;;;;;;4956742;29;20494;-74
2022/05/27 05:47:10;;;;;;;9.75;1.60;;;12.90;99.90;;;;;;4957947;29;20050;-73
2022/05/27 05:49:36;;;;;;;14.20;1.60;;;13.00;99.90;;;;;;4958004;28;20127;-74
2022/05/27 05:52:03;;;;;;;16.00;2.10;;;13.10;99.90;;;;;;4972366;28;20491;-73
2022/05/27 05:54:29;;;;;;;14.73;1.80;;;13.20;99.90;;;;;;4956300;29;20051;-74
2022/05/27 05:56:59;;;;;;;15.55;1.65;;;13.20;99.90;;;;;;4957563;29;20124;-73
2022/05/27 05:59:29;;;;;;;10.55;1.42;;;13.40;99.90;;;;;;4957568;28;20470;-75
2022/05/27 06:01:55;;;;;;;11.82;1.55;;;13.30;99.90;;;;;;4956728;29;20051;-74
2022/05/27 06:04:20;;;;;;;15.57;2.15;;;13.30;99.90;;;;;;4925383;29;20079;-74
2022/05/27 06:06:47;;;;;;;13.55;1.42;;;13.30;99.90;;;;;;4957762;28;20047;-73
2022/05/27 06:09:13;;;;;;;17.05;1.98;;;13.30;99.90;;;;;;4957555;29;20047;-74
2022/05/27 06:11:39;;;;;;;14.27;2.08;;;13.20;99.90;;;;;;4955737;29;20126;-74
2022/05/27 06:14:05;;;;;;;8.80;1.13;;;13.10;99.90;;;;;;4956179;29;20436;-74
2022/05/27 06:16:31;;;;;;;9.63;1.52;;;13.00;99.90;;;;;;4971764;28;20055;-73
2022/05/27 06:18:57;;;;;;;15.32;1.65;;;12.90;99.90;;;;;;4956041;29;20506;-73
2022/05/27 06:21:23;;;;;;;12.27;1.52;;;12.90;99.90;;;;;;4955303;29;20052;-73
2022/05/27 06:23:48;;;;;;;18.17;1.80;;;12.90;99.90;;;;;;4971527;28;20102;-74
2022/05/27 06:26:14;;;;;;;10.13;1.65;;;12.90;99.90;;;;;;4939122;29;20073;-74
2022/05/27 06:34:24;;;;;;;12.75;1.50;;;12.90;99.90;;;;;;4955349;29;20154;-73
2022/05/27 06:36:57;;;;;;;11.60;2.05;;;12.90;99.90;;;;;;4956752;29;20149;-74
2022/05/27 06:39:24;;;;;;;17.60;2.08;;;13.00;99.90;;;;;;4939228;29;20094;-75
2022/05/27 06:41:50;;;;;;;17.58;1.63;;;13.10;99.90;;;;;;4955977;29;20051;-73
2022/05/27 06:44:17;;;;;;;14.25;2.00;;;13.20;99.90;;;;;;4956274;28;20050;-74
2022/05/27 06:46:43;;;;;;;14.57;1.52;;;13.10;99.90;;;;;;4956060;29;20047;-74
2022/05/27 06:49:09;;;;;;;12.35;1.60;;;13.10;99.90;;;;;;4960013;29;20051;-75
2022/05/27 06:51:37;;;;;;;17.90;1.80;;;13.30;99.90;;;;;;4957260;28;20059;-73
2022/05/27 06:54:05;;;;;;;14.57;2.00;;;13.50;99.90;;;;;;4963903;29;20044;-73
2022/05/27 06:56:35;;;;;;;10.43;1.80;;;13.60;99.90;;;;;;4956735;28;20079;-73
2022/05/27 06:59:02;;;;;;;15.15;1.85;;;13.60;99.90;;;;;;4957612;29;20105;-74
2022/05/27 07:01:32;;;;;;;15.60;1.90;;;13.50;99.90;;;;;;4940124;29;20062;-75
2022/05/27 07:03:58;;;;;;;14.90;2.03;;;13.40;99.90;;;;;;4958876;28;20146;-77
2022/05/27 07:06:28;;;;;;;14.38;1.83;;;13.30;99.90;;;;;;4939463;29;20133;-74
2022/05/27 07:08:54;;;;;;;19.77;1.80;;;13.30;99.90;;;;;;4956044;29;20406;-75
2022/05/27 07:11:20;;;;;;;13.73;1.88;;;13.30;99.90;;;;;;4971869;28;20110;-75
2022/05/27 07:13:53;;;;;;;16.65;2.00;;;13.40;99.90;;;;;;5110510;27;20392;-75
2022/05/27 07:16:19;;;;;;;11.77;2.08;;;13.50;99.90;;;;;;5110321;28;20048;-74
2022/05/27 07:18:45;;;;;;;11.60;1.50;;;13.70;99.90;;;;;;5109330;28;20484;-76
2022/05/27 07:21:10;;;;;;;11.10;1.30;;;13.80;99.90;;;;;;5126138;28;20411;-77
2022/05/27 07:23:38;;;;;;;13.52;1.92;;;13.90;99.90;;;;;;5091127;28;20055;-76
2022/05/27 07:26:03;;;;;;;;;;;13.90;99.90;;;;;;5125491;28;20348;-76
2022/05/27 07:28:29;;;;;;;14.43;1.77;;;14.00;99.90;;;;;;5109449;28;19942;-75
2022/05/27 07:30:56;;;;;;;13.27;1.83;;;14.10;99.90;;;;;;5107689;28;20455;-75
2022/05/27 07:33:22;;;;;;;16.48;1.88;;;14.10;99.90;;;;;;5110220;28;20048;-74
2022/05/27 07:35:48;;;;;;;11.23;1.63;;;14.30;99.90;;;;;;5109825;28;20118;-76
2022/05/27 07:38:15;;;;;;;15.32;2.05;;;14.40;99.90;;;;;;5076427;28;20286;-75
2022/05/27 07:40:41;;;;;;;14.35;1.52;;;14.50;99.90;;;;;;5107136;28;20076;-73
2022/05/27 07:43:08;;;;;;;14.10;1.67;;;14.40;99.90;;;;;;5092054;28;20442;-74
2022/05/27 07:45:36;;;;;;;14.35;1.90;;;14.40;99.90;;;;;;5091433;28;20044;-75
2022/05/27 07:48:02;;;;;;;18.33;1.70;;;14.30;99.90;;;;;;5091104;28;20130;-76
2022/05/27 07:50:28;;;;;;;15.35;1.77;;;14.00;99.90;;;;;;5073557;28;20126;-74
2022/05/27 07:52:54;;;;;;;16.30;1.80;;;14.00;99.90;;;;;;5088480;28;20044;-75
2022/05/27 07:55:20;;;;;;;12.27;1.38;;;14.00;99.90;;;;;;5089877;28;20056;-76
2022/05/27 07:57:47;;;;;;;18.50;1.33;;;14.10;99.90;;;;;;5090672;28;20040;-76
2022/05/27 08:00:16;;;;;;;;;;;14.30;99.90;;;;;;5110431;28;20506;-76
2022/05/27 08:02:43;;;;;;;18.50;2.05;;;14.60;99.90;;;;;;5094416;28;19931;-77
2022/05/27 08:05:16;;;;;;;14.23;1.52;;;14.60;99.90;;;;;;5092542;28;20476;-77
2022/05/27 08:07:42;;;;;;;14.65;1.50;;;14.80;99.90;;;;;;5090780;28;20067;-76
2022/05/27 08:10:09;;;;;;;14.40;1.60;;;14.90;99.90;;;;;;5108717;28;20044;-77
2022/05/27 08:12:35;;;;;;;15.43;1.90;;;15.00;99.90;;;;;;5090883;28;20056;-78
2022/05/27 08:15:01;;;;;;;16.02;1.20;;;14.90;99.90;;;;;;5071013;28;20040;-74
2022/05/27 08:17:27;;;;;;;15.35;1.40;;;15.00;99.90;;;;;;5103954;28;20139;-76
2022/05/27 08:19:53;;;;;;;14.75;1.52;;;15.10;99.90;;;;;;5088233;28;20051;-75
2022/05/27 08:22:19;;;;;;;9.65;1.10;;;15.10;99.90;;;;;;5085708;28;20127;-77
2022/05/27 08:24:46;;;;;;;11.32;1.10;;;;;;;;;;5076935;28;20416;-77
2022/05/27 08:27:12;;;;;;;11.70;1.67;;;15.10;99.90;;;;;;5074703;28;20396;-77
2022/05/27 08:29:38;;;;;;;10.35;1.45;;;15.20;99.90;;;;;;5077415;28;20044;-77
2022/05/27 08:32:04;;;;;;;14.05;1.45;;;15.00;98.30;;;;;;5093663;28;20336;-76
2022/05/27 08:40:07;;;;;;;13.27;1.17;;;15.20;99.90;;;;;;5078541;28;20049;-77
2022/05/27 08:42:52;;;;;;;8.75;1.33;;;15.30;99.90;;;;;;5062770;28;20194;-74
2022/05/27 08:46:06;;;;;;;13.23;1.63;;;15.10;99.90;;;;;;5077903;28;20045;-74
2022/05/27 08:48:38;;;;;;;15.63;1.65;;;15.30;99.30;;;;;;5046154;28;20412;-77
2022/05/27 08:51:14;;;;;;;12.98;1.55;;;15.10;97.60;;;;;;5089444;28;20084;-76
2022/05/27 08:53:46;;;;;;;12.75;1.10;;;15.30;99.20;;;;;;5073259;28;20051;-76
2022/05/27 08:59:40;;;;;;;9.20;0.98;;;15.20;97.70;;;;;;5073189;28;20056;-76
2022/05/27 09:02:39;;;;;;;11.73;1.35;;;15.30;97.60;;;;;;5074268;28;20066;-75
2022/05/27 09:05:17;;;;;;;7.38;0.90;;;15.30;98.50;;;;;;5083172;28;20094;-76
2022/05/27 09:08:09;;;;;;;10.45;0.75;;;15.50;98.60;;;;;;5094049;28;20131;-77
2022/05/27 09:11:22;;;;;;;8.52;0.73;;;15.40;96.90;;;;;;5095357;28;20055;-76
2022/05/27 09:13:58;;;;;;;13.65;1.35;;;15.40;99.00;;;;;;5032239;28;20108;-76
2022/05/27 09:16:37;;;;;;;10.43;0.93;;;15.40;97.60;;;;;;5089640;28;20044;-77
2022/05/27 09:19:54;;;;;;;11.93;1.50;;;15.30;97.50;;;;;;5095979;28;20078;-77
2022/05/27 09:22:51;;;;;;;20.05;1.20;;;15.50;98.60;;;;;;5062479;28;20057;-77
2022/05/27 09:25:33;;;;;;;15.90;1.70;;;15.70;97.70;;;;;;5098348;28;20106;-76
2022/05/27 09:28:36;;;;;;;7.70;1.17;;;15.90;97.70;;;;;;5099485;28;20050;-75
2022/05/27 09:31:07;;;;;;;13.32;1.23;;;16.00;96.20;;;;;;5098252;28;20073;-77
2022/05/27 09:33:34;;;;;;;7.95;1.00;;;16.30;97.20;;;;;;5081576;28;20051;-78
2022/05/27 09:36:04;;;;;;;;;;;15.90;94.70;;;;;;5082622;28;20048;-77
2022/05/27 09:38:33;;;;;;;12.20;1.17;;;15.50;95.10;;;;;;5083983;28;19920;-77
2022/05/27 09:41:11;;;;;;;8.40;1.00;;;15.60;97.40;;;;;;5084915;28;20054;-76
2022/05/27 09:43:49;;;;;;;11.80;0.82;;;15.50;97.00;;;;;;5101574;28;20059;-74
2022/05/27 09:46:23;;;;;;;9.60;0.80;;;15.70;97.20;;;;;;5101480;28;20051;-75
2022/05/27 09:48:49;;;;;;;9.20;0.80;;;15.90;96.30;;;;;;5100135;28;20081;-76
2022/05/27 09:51:17;;;;;;;8.60;0.80;;;16.10;95.60;;;;;;5099873;28;20470;-77
2022/05/27 09:53:48;;;;;;;6.93;0.57;;;16.10;94.30;;;;;;5080801;28;20050;-77
2022/05/27 09:56:16;;;;;;;9.73;0.63;;;16.10;95.60;;;;;;5099892;28;20051;-74
2022/05/27 09:58:45;;;;;;;8.35;0.70;;;16.30;94.70;;;;;;5100614;28;20044;-75
2022/05/27 10:01:22;;;;;;;7.32;0.60;;;16.40;93.90;;;;;;5098567;28;20062;-76
2022/05/27 10:04:02;;;;;;;8.52;0.63;;;16.30;93.40;;;;;;5097920;28;20044;-76
2022/05/27 10:06:30;;;;;;;10.00;1.10;;;16.60;93.50;;;;;;5095512;28;20051;-76
2022/05/27 10:08:58;;;;;;;12.88;0.70;;;16.50;93.20;;;;;;5078679;28;20095;-76
2022/05/27 10:11:30;;;;;;;7.68;0.75;;;16.10;94.00;;;;;;5098046;28;20411;-76
2022/05/27 10:14:18;;;;;;;6.53;0.70;;;16.20;91.60;;;;;;5099588;28;20105;-77
2022/05/27 10:16:59;;;;;;;10.48;1.23;;;16.30;93.20;;;;;;5103844;28;20127;-76
2022/05/27 10:19:26;;;;;;;7.20;0.75;;;16.50;93.50;;;;;;5103745;28;20124;-76
2022/05/27 10:22:00;;;;;;;;;;;16.50;93.60;;;;;;5105021;28;20048;-75
2022/05/27 10:24:31;;;;;;;11.65;1.02;;;16.50;92.90;;;;;;5103343;28;19920;-75
2022/05/27 10:27:12;;;;;;;12.50;1.10;;;16.70;93.00;;;;;;5103615;28;20077;-75
2022/05/27 10:29:52;;;;;;;12.30;1.00;;;17.00;92.30;;;;;;5101015;28;20129;-74
2022/05/27 10:32:38;;;;;;;12.00;1.00;;;16.90;94.30;;;;;;5095390;28;20074;-76
2022/05/27 10:35:08;;;;;;;13.02;0.73;;;16.80;92.80;;;;;;5076021;28;20049;-75
2022/05/27 10:37:52;;;;;;;8.30;1.10;;;17.00;91.90;;;;;;5075633;28;20045;-76
2022/05/27 10:40:41;;;;;;;10.90;1.35;;;16.80;91.80;;;;;;5077958;28;20106;-77
2022/05/27 10:43:29;;;;;;;12.90;1.27;;;17.00;93.60;;;;;;5067217;28;20114;-77
2022/05/27 10:45:57;;;;;;;10.75;1.45;;;16.80;92.30;;;;;;5075859;28;20048;-75
2022/05/27 10:48:40;;;;;;;10.98;1.00;;;17.20;91.90;;;;;;5074931;28;20129;-78
2022/05/27 10:51:20;;;;;;;10.40;1.23;;;17.20;91.30;;;;;;5074048;28;20056;-75
2022/05/27 10:54:22;;;;;;;9.00;1.17;;;17.30;90.20;;;;;;5073553;28;20127;-77
2022/05/27 11:02:46;;;;;;;10.88;1.27;;;17.10;90.90;;;;;;5071464;28;20096;-76
2022/05/27 11:05:14;;;;;;;18.17;1.20;;;16.80;91.00;;;;;;5081940;28;20048;-76
2022/05/27 11:08:16;;;;;;;15.32;1.48;;;16.60;90.10;;;;;;5091612;28;20044;-76
2022/05/27 11:11:07;;;;;;;12.25;1.05;;;16.90;90.10;;;;;;5092961;28;20056;-76
2022/05/27 11:16:56;;;;;;;14.07;1.13;;;17.10;91.00;;;;;;5090978;28;20062;-78
2022/05/27 11:19:55;;;;;;;10.23;1.00;;;17.50;90.40;;;;;;5086633;28;20138;-72
2022/05/27 11:22:56;;;;;;;7.85;0.68;;;17.30;86.20;;;;;;5088305;28;20044;-73
2022/05/27 11:25:39;;;;;;;7.20;0.90;;;17.70;87.80;;;;;;5090128;28;20096;-74
2022/05/27 11:28:14;;;;;;;8.38;1.10;;;17.30;87.40;;;;;;5090895;28;20071;-74
2022/05/27 11:31:11;;;;;;;12.13;1.50;;;16.90;89.70;;;;;;5090517;28;20070;-74
2022/05/27 11:34:02;;;;;;;15.50;1.63;;;16.70;91.10;;;;;;5082266;28;20045;-75
2022/05/27 11:36:50;;;;;;;11.75;0.93;;;16.40;90.40;;;;;;5070837;28;20415;-74
2022/05/27 11:39:50;;;;;;;15.85;1.33;;;16.40;90.00;;;;;;5069559;28;20385;-74
2022/05/27 11:42:41;;;;;;;11.93;1.00;;;16.30;90.10;;;;;;5072390;28;20054;-73
2022/05/27 11:45:24;;;;;;;9.77;1.10;;;16.20;87.40;;;;;;5073664;28;20051;-74
2022/05/27 11:48:19;;;;;;;10.38;1.13;;;16.10;90.10;;;;;;5071374;28;20141;-76
2022/05/27 11:51:09;;;;;;;8.27;1.15;;;16.40;86.50;;;;;;5071598;28;20515;-76
2022/05/27 11:53:59;;;;;;;11.55;0.80;;;16.10;86.60;;;;;;5068554;28;20080;-77
2022/05/27 11:56:28;;;;;;;11.43;1.02;;;16.50;88.20;;;;;;5041624;28;20071;-77
2022/05/27 11:59:04;;;;;;;15.68;1.60;;;16.80;90.00;;;;;;5071000;28;20055;-76
2022/05/27 12:01:43;;;;;;;13.20;1.38;;;17.00;87.60;;;;;;5073243;28;20052;-75
2022/05/27 12:04:15;;;;;;;12.98;1.08;;;16.70;87.20;;;;;;5075782;28;20045;-77
2022/05/27 12:07:04;;;;;;;11.20;1.17;;;16.30;87.90;;;;;;5057084;28;20048;-76
2022/05/27 12:09:53;;;;;;;15.75;2.17;;;16.40;90.70;;;;;;5074905;28;20044;-77
2022/05/27 12:12:33;;;;;;;13.32;1.30;;;16.50;89.10;;;;;;5073502;28;20080;-75
2022/05/27 12:15:01;;;;;;;7.65;1.08;;;16.50;88.80;;;;;;5075054;28;20131;-77
2022/05/27 12:17:42;;;;;;;11.55;1.00;;;16.90;90.50;;;;;;5074288;28;20037;-76
2022/05/27 12:20:10;;;;;;;17.08;1.50;;;17.00;90.30;;;;;;5057451;28;20056;-76
2022/05/27 12:22:35;;;;;;;15.57;1.17;;;17.20;89.20;;;;;;5072779;28;20365;-78
2022/05/27 12:25:14;;;;;;;15.98;1.48;;;17.30;88.60;;;;;;5073826;28;20055;-77
2022/05/27 12:27:40;;;;;;;13.60;1.00;;;16.80;83.70;;;;;;5040243;28;20049;-76
2022/05/27 12:30:10;;;;;;;17.50;1.10;;;17.00;85.70;;;;;;5074317;28;20067;-77
2022/05/27 12:32:40;;;;;;;10.50;1.25;;;16.50;84.40;;;;;;5075539;28;20045;-76
2022/05/27 12:35:34;;;;;;;12.90;1.70;;;16.50;84.00;;;;;;5060295;28;20047;-76
2022/05/27 12:38:05;;;;;;;11.02;0.82;;;16.30;85.90;;;;;;5058404;28;20419;-78
2022/05/27 12:40:33;;;;;;;10.00;1.33;;;16.20;88.50;;;;;;5074927;28;20036;-75
2022/05/27 12:43:10;;;;;;;10.20;1.48;;;16.40;88.30;;;;;;5076811;28;20492;-76
2022/05/27 12:46:12;;;;;;;12.27;1.50;;;16.60;90.60;;;;;;5045405;28;20048;-79
2022/05/27 12:48:41;;;;;;;10.20;1.00;;;16.70;89.30;;;;;;5077267;28;20044;-77
2022/05/27 12:51:28;;;;;;;11.32;1.08;;;16.90;87.40;;;;;;5076955;28;20056;-79
2022/05/27 12:53:59;;;;;;;15.80;1.50;;;16.60;86.60;;;;;;5058552;28;20068;-77
2022/05/27 13:02:23;;;;;;;10.85;1.10;;;17.00;88.20;;;;;;5076587;28;20067;-77
2022/05/27 13:04:57;;;;;;;13.43;1.27;;;17.20;88.00;;;;;;5073878;28;20440;-78
2022/05/27 13:07:35;;;;;;;12.45;1.23;;;17.20;86.80;;;;;;5071822;28;20052;-76
2022/05/27 13:10:30;;;;;;;19.40;1.73;;;17.30;86.90;;;;;;5074838;28;20045;-77
2022/05/27 13:13:06;;;;;;;17.42;1.60;;;16.90;87.00;;;;;;5061306;28;20061;-77
2022/05/27 13:15:48;;;;;;;15.85;1.30;;;16.70;86.70;;;;;;5075103;28;20435;-75
2022/05/27 13:18:34;;;;;;;14.80;1.00;;;16.40;87.60;;;;;;5074002;28;20056;-77
2022/05/27 13:21:34;;;;;;;11.52;1.00;;;16.30;86.90;;;;;;5075707;28;20055;-77
2022/05/27 13:24:02;;;;;;;10.63;1.00;;;16.40;89.20;;;;;;5062751;28;20052;-75
2022/05/27 13:26:39;;;;;;;11.57;1.20;;;16.60;87.80;;;;;;5073976;28;20230;-77
2022/05/27 13:29:28;;;;;;;8.30;0.75;;;16.20;86.50;;;;;;5072284;28;20083;-77
2022/05/27 13:31:59;;;;;;;19.55;1.60;;;16.40;88.50;;;;;;5072393;28;20099;-75
2022/05/27 13:34:38;;;;;;;15.57;1.67;;;16.50;89.00;;;;;;5071597;28;20048;-77
2022/05/27 13:37:12;;;;;;;16.40;1.40;;;16.60;88.80;;;;;;5074104;28;20082;-75
2022/05/27 13:39:44;;;;;;;14.63;1.17;;;16.50;89.00;;;;;;5073499;28;20060;-75
2022/05/27 13:42:16;;;;;;;15.02;1.60;;;16.90;90.20;;;;;;5073764;28;20044;-76
2022/05/27 13:44:42;;;;;;;14.63;1.13;;;16.90;89.80;;;;;;5073633;28;20326;-77
2022/05/27 13:47:15;;;;;;;18.35;1.60;;;16.60;87.90;;;;;;5074235;28;20135;-77
2022/05/27 13:49:43;;;;;;;13.73;1.27;;;16.50;87.90;;;;;;5073489;28;20500;-77
2022/05/27 13:52:18;;;;;;;18.27;1.42;;;16.60;87.40;;;;;;5057662;28;20055;-77